• Join FlightAware (Why Join?)
  • Login
  • US Flag 
05:17AM EDT


 

Airport Tracker/Info


-or-


 

Live Flight TrackerFlight Track Log ✈ SWA3213 ✈ 09-Aug-2013 ✈ KTPA - KSDF

Flight Track Log - Related Links

Times and Time Zones

All times are in EDT time to prevent confusion due to time zone crossing. See the SWA3213 flight status page for this flight to view local times or setup timezone preferences in your user account.

Time Position Orientation Groundspeed Altitude Reporting Facility
EDT Latitude Longitude Course Direction KTS MPH feet Rate Location/Type
09:52AM 27.9500 -82.5500 221° Southwest 186 214 900  Level Tampa TRACON
09:53AM 27.9167 -82.5833 221° Southwest 216 249 2,900 2,100 Climbing Tampa TRACON
09:54AM 27.9000 -82.6500 254° West 239 275 5,400 2,400 Climbing Tampa TRACON
09:55AM 27.8833 -82.7333 257° West 257 296 7,700 2,340 Climbing Tampa TRACON
09:58AM 28.0936 -82.7656 352° North 297 342 13,600 2,460 Climbing Jacksonville Center
09:59AM 28.1894 -82.7725 356° North 328 377 16,400 2,520 Climbing Jacksonville Center
10:00AM 28.2917 -82.7817 355° North 352 405 18,800 2,280 Climbing Jacksonville Center
10:01AM 28.3983 -82.7864 358° North 371 427 21,000 2,160 Climbing Jacksonville Center
10:02AM 28.5067 -82.8028 352° North 381 438 23,200 2,040 Climbing Jacksonville Center
10:03AM 28.6172 -82.8264 349° North 391 450 25,200 1,620 Climbing Jacksonville Center
10:04AM 28.7197 -82.8453 351° North 401 461 26,500 1,560 Climbing Jacksonville Center
10:05AM 28.8344 -82.8711 349° North 406 467 28,300 1,560 Climbing Jacksonville Center
10:06AM 28.9492 -82.8972 349° North 418 481 29,700 1,500 Climbing Jacksonville Center
10:07AM 29.0703 -82.9258 348° North 425 489 31,300 1,680 Climbing Jacksonville Center
10:08AM 29.1850 -82.9519 349° North 431 496 33,100 1,440 Climbing Jacksonville Center
10:09AM 29.3019 -82.9806 348° North 426 490 34,200 1,380 Climbing Jacksonville Center
10:10AM 29.4189 -83.0069 349° North 426 490 35,900 900 Climbing Jacksonville Center
10:11AM 29.5378 -83.0381 347° North 426 490 36,000  Climbing Jacksonville Center
10:12AM 29.6525 -83.0767 344° North 432 497 36,000  Level Jacksonville Center
10:13AM 29.7611 -83.1269 338° Northwest 432 497 36,000  Level Jacksonville Center
10:14AM 29.8842 -83.1825 339° North 433 498 36,000  Level Jacksonville Center
10:15AM 29.9989 -83.2381 337° Northwest 433 498 36,000  Level Jacksonville Center
10:16AM 30.1114 -83.2864 340° North 433 498 36,000 -60 Level Jacksonville Center
10:17AM 30.2219 -83.3372 338° Northwest 433 498 35,900  Descending Jacksonville Center
10:18AM 30.3344 -83.3931 337° Northwest 433 498 36,000  Climbing Jacksonville Center
10:19AM 30.4450 -83.4444 338° Northwest 433 498 36,000  Level Jacksonville Center
10:20AM 30.5575 -83.4956 339° North 433 498 36,000  Level Jacksonville Center
10:21AM 30.6658 -83.5472 338° Northwest 433 498 36,000  Level Jacksonville Center
10:22AM 30.7719 -83.6008 337° Northwest 428 493 36,000  Level Jacksonville Center
10:23AM 30.8844 -83.6528 338° Northwest 422 486 36,000  Level Jacksonville Center
10:24AM 30.9967 -83.7069 338° Northwest 422 486 36,000  Level Jacksonville Center
10:25AM 31.1114 -83.7614 338° Northwest 433 498 36,000  Level Jacksonville Center
10:26AM 31.2258 -83.8158 338° Northwest 433 498 36,000  Level Jacksonville Center
10:28AM 31.4544 -83.9294 337° Northwest 409 471 36,000  Level Atlanta Center
10:29AM 31.5650 -83.9731 341° North 403 464 36,000  Level Atlanta Center
10:30AM 31.6839 -83.9997 349° North 410 472 36,000  Level Atlanta Center
10:31AM 31.8031 -84.0242 350° North 420 483 36,000  Level Atlanta Center
10:32AM 31.9219 -84.0486 350° North 426 490 36,000  Level Atlanta Center
10:33AM 32.0408 -84.0756 349° North 432 497 36,000  Level Atlanta Center
10:34AM 32.1578 -84.1003 350° North 432 497 36,000  Level Atlanta Center
10:35AM 32.2808 -84.1272 350° North 432 497 36,000  Level Atlanta Center
10:36AM 32.4103 -84.1594 348° North 432 497 36,000  Level Atlanta Center
10:37AM 32.5333 -84.1842 350° North 432 497 36,000  Level Atlanta Center
10:38AM 32.6544 -84.2139 348° North 432 497 36,000  Level Atlanta Center
10:39AM 32.7775 -84.2439 348° North 437 503 36,000  Level Atlanta Center
10:40AM 32.8986 -84.2739 348° North 437 503 36,000  Level Atlanta Center
10:41AM 33.0217 -84.2989 350° North 447 514 36,000  Level Atlanta Center
10:42AM 33.1406 -84.3292 348° North 447 514 36,000  Level Atlanta Center
10:43AM 33.2469 -84.3517 350° North 447 514 36,000  Level Atlanta Center
10:44AM 33.3700 -84.3797 349° North 447 514 36,000  Level Atlanta Center
10:45AM 33.4889 -84.4050 350° North 447 514 36,000 -300 Level Atlanta Center
10:46AM 33.6119 -84.4331 349° North 447 514 35,400 -540 Descending Atlanta Center
10:47AM 33.7308 -84.4633 348° North 441 507 35,000 -240 Descending Atlanta Center
10:48AM 33.8519 -84.4917 349° North 448 516 35,000  Level Atlanta Center
10:49AM 33.9917 -84.5247 349° North 453 521 35,000  Level Atlanta Center
10:50AM 34.1125 -84.5556 348° North 446 513 35,000  Level Atlanta Center
10:51AM 34.2439 -84.5842 350° North 458 527 35,000  Level Atlanta Center
10:52AM 34.3522 -84.6100 349° North 448 516 35,000  Level Atlanta Center
10:53AM 34.4775 -84.6386 349° North 448 516 35,000  Level Atlanta Center
10:54AM 34.5961 -84.6697 348° North 443 510 35,000 -360 Level Atlanta Center
10:55AM 34.7253 -84.7036 348° North 438 504 34,300 -900 Descending Atlanta Center
10:56AM 34.8464 -84.7322 349° North 438 504 33,300 -1,020 Descending Atlanta Center
10:57AM 34.9672 -84.7636 348° North 438 504 32,300 -960 Descending Atlanta Center
10:58AM 35.0881 -84.7928 349° North 438 504 31,400 -900 Descending Atlanta Center
10:59AM 35.2089 -84.8242 348° North 433 498 30,500 -720 Descending Atlanta Center
11:00AM 35.3317 -84.8533 349° North 438 504 30,000 -300 Descending Atlanta Center
11:01AM 35.4547 -84.8828 349° North 444 511 30,000  Level Atlanta Center
11:02AM 35.5650 -84.9094 349° North 449 517 30,000  Level Atlanta Center
11:04AM 35.8531 -84.9811 349° North 456 525 30,000  Level Indianapolis Center
11:05AM 35.9867 -85.0156 348° North 450 518 30,000  Level Indianapolis Center
11:06AM 36.1092 -85.0461 349° North 446 513 30,000  Level Indianapolis Center
11:07AM 36.2300 -85.0767 348° North 443 510 30,000  Level Indianapolis Center
11:08AM 36.3531 -85.1081 348° North 448 516 30,000 -120 Level Indianapolis Center
11:09AM 36.4781 -85.1403 348° North 456 525 29,800 -600 Descending Indianapolis Center
11:10AM 36.6022 -85.1622 352° North 453 521 28,800 -900 Descending Indianapolis Center
11:11AM 36.7289 -85.1392 North 459 528 28,000 -780 Descending Indianapolis Center
11:12AM 36.8544 -85.1156 North 455 524 27,200 -1,680 Descending Indianapolis Center
11:13AM 37.0011 -85.0836 10° North 446 513 24,600 -2,460 Descending Indianapolis Center
11:14AM 37.1069 -85.0636 North 424 488 22,200 -2,400 Descending Indianapolis Center
11:15AM 37.2236 -85.0417 North 422 486 19,700 -2,220 Descending Indianapolis Center
11:16AM 37.3344 -85.0169 10° North 410 472 17,700 -2,340 Descending Indianapolis Center
11:17AM 37.4619 -84.9922 North 400 460 14,900 -2,520 Descending Indianapolis Center
11:18AM 37.5672 -84.9714 North 384 442 12,600 -1,860 Descending Indianapolis Center
11:19AM 37.6658 -84.9731 359° North 360 414 11,100 -1,260 Descending Indianapolis Center
11:20AM 37.7261 -85.0542 313° West 318 366 10,100 -540 Descending Indianapolis Center
11:22AM 37.7839 -85.1342 312° West 308 354 10,000 -60 Descending Indianapolis Center
11:23AM 37.8361 -85.2069 312° West 300 345 10,000 -900 Level Indianapolis Center
11:24AM 37.8989 -85.2919 313° West 277 319 8,200 -1,740 Descending Indianapolis Center
11:25AM 37.9492 -85.3631 312° West 272 313 6,500 -1,080 Descending Indianapolis Center
11:26AM 38.0000 -85.4333 313° West 270 311 6,000 -300 Descending Indianapolis Center
11:27AM 38.0500 -85.4967 315° West 259 298 6,000  Level Indianapolis Center
11:28AM 38.1131 -85.5417 331° Northwest 258 297 6,000 -120 Level Indianapolis Center
11:29AM 38.1758 -85.5856 331° Northwest 256 295 5,800 -720 Descending Indianapolis Center
11:30AM 38.2347 -85.6317 328° Northwest 252 290 4,600 -900 Descending Indianapolis Center
11:31AM 38.2958 -85.6622 339° North 245 282 4,000 -600 Descending Indianapolis Center
11:32AM 38.3556 -85.6908 339° North 237 273 3,400 -540 Descending Indianapolis Center
11:33AM 38.3664 -85.7656 280° West 211 243 3,000 -240 Descending Indianapolis Center
11:34AM 38.3164 -85.7778 191° South 199 229 3,000 -300 Level Indianapolis Center
11:35AM 38.2731 -85.7628 165° South 192 221 2,500 -780 Descending Indianapolis Center
11:37AM 38.1833 -85.7333 166° South 131 151 700 -840 Descending Louisville TRACON